Time;durP1;ratioP1;P1;durP2;ratioP2;P2;SDS_P1;SDS_P2;PMS_P1;PMS_P2;Temp;Humidity;BMP_temperature;BMP_pressure;BME280_temperature;BME280_humidity;BME280_pressure;Samples;Min_cycle;Max_cycle;Signal;HPM_P1;HPM_P2
2022/01/03 00:00:16;;;;;;;16.92;12.83;;;;;;;-4.59;81.13;101087.87;461191;111;922654;-70
2022/01/03 00:01:20;;;;;;;18.44;14.18;;;;;;;-4.65;81.10;101091.81;460487;111;922623;-71
2022/01/03 00:02:26;;;;;;;19.54;14.14;;;;;;;-4.69;81.18;101091.19;461329;112;922658;-72
2022/01/03 00:03:29;;;;;;;16.62;13.62;;;;;;;-4.72;81.21;101096.70;461745;113;931079;-70
2022/01/03 00:04:34;;;;;;;13.01;9.87;;;;;;;-4.75;81.16;101075.64;462015;111;922893;-70
2022/01/03 00:05:38;;;;;;;10.83;9.73;;;;;;;-4.77;81.17;101082.00;461060;112;922663;-71
2022/01/03 00:06:41;;;;;;;11.06;9.91;;;;;;;-4.80;81.13;101076.91;461241;113;922580;-71
2022/01/03 00:07:46;;;;;;;9.59;8.57;;;;;;;-4.82;81.14;101074.34;462919;113;922608;-72
2022/01/03 00:08:49;;;;;;;9.30;8.26;;;;;;;-4.85;81.10;101077.19;462170;111;930661;-70
2022/01/03 00:09:53;;;;;;;10.43;8.83;;;;;;;-4.87;81.17;101072.95;462316;111;922557;-71
2022/01/03 00:10:57;;;;;;;10.29;8.79;;;;;;;-4.86;81.27;101072.86;459919;113;922698;-71
2022/01/03 00:12:01;;;;;;;8.56;7.68;;;;;;;-4.84;81.36;101078.05;458566;111;930554;-70
2022/01/03 00:13:05;;;;;;;8.51;7.05;;;;;;;-4.83;81.30;101077.10;460940;111;922512;-71
2022/01/03 00:14:09;;;;;;;7.87;7.11;;;;;;;-4.85;81.20;101079.86;460029;113;922744;-72
2022/01/03 00:15:14;;;;;;;7.78;6.99;;;;;;;-4.86;81.20;101075.52;464085;111;922581;-71
2022/01/03 00:16:18;;;;;;;8.23;6.75;;;;;;;-4.87;81.21;101068.48;461236;111;930566;-72
2022/01/03 00:17:22;;;;;;;7.93;7.05;;;;;;;-4.88;81.25;101063.27;463941;112;922554;-71
2022/01/03 00:18:25;;;;;;;8.61;6.91;;;;;;;-4.89;81.26;101059.75;462740;111;922829;-71
2022/01/03 00:19:28;;;;;;;7.86;7.07;;;;;;;-4.90;81.30;101047.41;463998;111;926527;-70
2022/01/03 00:20:32;;;;;;;8.24;6.82;;;;;;;-4.87;81.38;101057.00;461371;112;922558;-70
2022/01/03 00:21:42;;;;;;;6.99;6.04;;;;;;;-4.86;81.35;101054.24;459302;113;922878;-72
2022/01/03 00:23:02;;;;;;;9.84;7.21;;;;;;;-4.74;81.39;101053.38;481204;108;947417;-71
2022/01/03 00:24:08;;;;;;;7.42;6.68;;;;;;;-4.82;81.42;101045.09;470568;110;922994;-70
2022/01/03 00:25:18;;;;;;;8.66;7.78;;;;;;;-4.81;81.32;101046.80;475309;110;923094;-71
2022/01/03 00:26:26;;;;;;;7.89;7.11;;;;;;;-4.81;81.32;101048.60;473518;110;922564;-70
2022/01/03 00:27:33;;;;;;;9.33;7.61;;;;;;;-4.81;81.30;101041.48;470729;110;923052;-69
2022/01/03 00:28:50;;;;;;;8.69;7.69;;;;;;;-4.70;81.43;101046.91;474654;110;947328;-71
2022/01/03 00:29:53;;;;;;;8.44;7.58;;;;;;;-4.79;81.45;101041.34;465888;112;922573;-70
2022/01/03 00:30:57;;;;;;;8.23;7.23;;;;;;;-4.78;81.45;101043.91;467035;111;930714;-71
2022/01/03 00:32:01;;;;;;;9.39;8.48;;;;;;;-4.77;81.47;101042.96;468608;111;923457;-69
2022/01/03 00:33:05;;;;;;;9.21;8.24;;;;;;;-4.78;81.35;101033.27;468733;111;923041;-71
2022/01/03 00:34:11;;;;;;;8.61;7.51;;;;;;;-4.77;81.28;101029.66;469036;111;922679;-72
2022/01/03 00:35:16;;;;;;;10.37;9.40;;;;;;;-4.77;81.25;101028.81;468694;111;922578;-70
2022/01/03 00:36:20;;;;;;;9.24;8.26;;;;;;;-4.77;81.25;101028.81;466966;112;923016;-71
2022/01/03 00:37:26;;;;;;;10.54;9.16;;;;;;;-4.76;81.32;101027.86;466709;111;922622;-71
2022/01/03 00:38:33;;;;;;;12.43;9.42;;;;;;;-4.75;81.35;101026.91;468121;111;930626;-70
2022/01/03 00:39:37;;;;;;;10.50;9.46;;;;;;;-4.75;81.27;101017.12;467394;111;922839;-70
2022/01/03 00:40:41;;;;;;;10.35;9.36;;;;;;;-4.72;81.38;101016.89;468415;111;922577;-71
2022/01/03 00:41:48;;;;;;;10.60;8.41;;;;;;;-4.70;81.36;101011.47;469483;112;923178;-69
2022/01/03 00:42:49;;;;;;;9.52;8.52;;;;;;;-4.69;81.36;101010.52;467363;112;922529;-71
2022/01/03 00:43:55;;;;;;;9.96;8.74;;;;;;;-4.69;81.34;101014.03;469834;111;922972;-71
2022/01/03 00:45:01;;;;;;;9.51;8.49;;;;;;;-4.67;81.27;101014.76;467822;111;923223;-71
2022/01/03 00:46:06;;;;;;;9.66;8.38;;;;;;;-4.67;81.21;101008.58;466233;111;922772;-70
2022/01/03 00:47:11;;;;;;;9.44;7.99;;;;;;;-4.67;81.25;101012.09;469038;112;922589;-71
2022/01/03 00:48:14;;;;;;;9.35;8.05;;;;;;;-4.66;81.17;101008.48;468620;112;923180;-71
2022/01/03 00:49:18;;;;;;;8.98;7.62;;;;;;;-4.67;81.07;100996.14;467000;111;930674;-72
2022/01/03 00:50:23;;;;;;;8.59;7.75;;;;;;;-4.66;81.14;101000.50;467635;112;923730;-71
2022/01/03 00:51:27;;;;;;;8.37;7.57;;;;;;;-4.65;81.09;101002.21;467637;111;922909;-71
2022/01/03 00:52:31;;;;;;;10.20;8.24;;;;;;;-4.63;80.99;101007.40;469240;112;922662;-71
2022/01/03 00:53:34;;;;;;;9.04;8.14;;;;;;;-4.65;80.88;101004.88;468104;111;923055;-71
2022/01/03 00:54:38;;;;;;;8.98;7.79;;;;;;;-4.65;80.79;101012.00;468892;112;922691;-72
2022/01/03 00:55:53;;;;;;;9.02;8.13;;;;;;;-4.68;80.78;100999.75;468945;111;923370;-71
2022/01/03 00:57:00;;;;;;;8.40;7.64;;;;;;;-4.69;80.82;100995.41;467435;111;922908;-70
2022/01/03 00:58:10;;;;;;;8.41;7.58;;;;;;;-4.68;80.90;100988.25;468311;112;922586;-70
2022/01/03 00:59:15;;;;;;;10.28;8.56;;;;;;;-4.67;80.92;100988.16;468912;112;922659;-70
2022/01/03 01:00:19;;;;;;;8.81;7.91;;;;;;;-4.67;80.91;100980.17;467028;112;922822;-71
2022/01/03 01:01:25;;;;;;;9.34;8.35;;;;;;;-4.67;80.80;100988.16;467251;112;922683;-71
2022/01/03 01:02:32;;;;;;;10.02;8.71;;;;;;;-4.68;80.79;100989.11;467764;111;922751;-72
2022/01/03 01:03:38;;;;;;;11.12;9.17;;;;;;;-4.70;80.81;100985.72;468829;111;922514;-71
2022/01/03 01:04:46;;;;;;;11.56;9.13;;;;;;;-4.71;80.74;100989.34;467913;111;923089;-71
2022/01/03 01:05:51;;;;;;;10.57;9.32;;;;;;;-4.71;80.66;100999.13;468165;111;923032;-72
2022/01/03 01:06:56;;;;;;;10.50;9.36;;;;;;;-4.74;80.60;100992.19;468073;112;923051;-71
2022/01/03 01:07:59;;;;;;;11.42;9.33;;;;;;;-4.75;80.64;100982.54;468250;112;922652;-71
2022/01/03 01:09:05;;;;;;;11.09;10.02;;;;;;;-4.76;80.66;100966.67;468363;112;922711;-70
2022/01/03 01:10:09;;;;;;;9.84;8.84;;;;;;;-4.76;80.65;100974.66;469299;112;930719;-71
2022/01/03 01:11:13;;;;;;;10.05;8.80;;;;;;;-4.76;80.64;100979.98;469367;111;922838;-70
2022/01/03 01:12:17;;;;;;;10.42;9.42;;;;;;;-4.76;80.75;100979.98;467339;111;923243;-71
2022/01/03 01:13:21;;;;;;;10.40;9.22;;;;;;;-4.75;80.73;100984.34;467821;111;930536;-70
2022/01/03 01:14:27;;;;;;;12.37;10.92;;;;;;;-4.75;80.69;100977.22;469434;111;922856;-72
2022/01/03 01:15:32;;;;;;;13.47;11.08;;;;;;;-4.74;80.77;100968.25;468565;111;922589;-71
2022/01/03 01:16:36;;;;;;;10.55;9.50;;;;;;;-4.72;80.78;100965.50;467917;111;922721;-71
2022/01/03 01:17:40;;;;;;;11.44;10.26;;;;;;;-4.70;80.85;100966.25;468479;111;930502;-71
2022/01/03 01:18:45;;;;;;;12.15;10.90;;;;;;;-4.68;80.87;100948.35;469158;111;922740;-70
2022/01/03 01:19:49;;;;;;;11.58;10.41;;;;;;;-4.66;80.80;100957.09;467568;111;924274;-70
2022/01/03 01:20:53;;;;;;;15.96;10.13;;;;;;;-4.64;80.83;100952.52;467948;112;922662;-71
2022/01/03 01:21:56;;;;;;;11.27;10.15;;;;;;;-4.60;80.93;100953.14;467426;111;922704;-70
2022/01/03 01:23:01;;;;;;;11.61;10.24;;;;;;;-4.58;80.90;100946.77;467984;112;922521;-70
2022/01/03 01:24:05;;;;;;;12.05;10.82;;;;;;;-4.51;81.08;100947.15;467047;111;923371;-71
2022/01/03 01:27:48;;;;;;;12.47;11.28;;;;;;;-4.42;81.24;100936.72;448585;116;922967;-70
2022/01/03 01:28:52;;;;;;;11.98;10.69;;;;;;;-4.37;81.25;100934.58;449442;116;922903;-70
2022/01/03 01:29:55;;;;;;;11.62;10.34;;;;;;;-4.35;81.18;100939.77;466625;112;922494;-71
2022/01/03 01:31:01;;;;;;;12.68;10.41;;;;;;;-4.36;81.08;100940.75;468321;112;923043;-71
2022/01/03 01:32:08;;;;;;;11.89;10.35;;;;;;;-4.38;81.06;100924.03;468567;111;923194;-71
2022/01/03 01:33:17;;;;;;;12.62;9.77;;;;;;;-4.40;81.09;100929.45;467392;111;923478;-71
2022/01/03 01:34:27;;;;;;;10.68;9.68;;;;;;;-4.42;81.06;100936.72;465771;111;922701;-70
2022/01/03 01:35:47;;;;;;;10.48;9.47;;;;;;;-4.42;81.07;100922.56;468005;111;922995;-70
2022/01/03 01:36:54;;;;;;;12.00;9.37;;;;;;;-4.44;81.00;100924.47;466957;111;922994;-70
2022/01/03 01:38:00;;;;;;;10.12;8.95;;;;;;;-4.46;81.06;100921.91;467278;111;922569;-71
2022/01/03 01:39:07;;;;;;;9.61;8.69;;;;;;;-4.46;81.18;100916.59;468357;111;922678;-71
2022/01/03 01:40:14;;;;;;;10.39;8.97;;;;;;;-4.45;81.13;100918.30;468589;111;922907;-70
2022/01/03 01:41:19;;;;;;;9.93;8.90;;;;;;;-4.46;81.05;100921.91;460692;114;922606;-72
2022/01/03 01:42:26;;;;;;;10.06;9.08;;;;;;;-4.45;81.09;100917.44;460510;112;922712;-71
2022/01/03 01:43:39;;;;;;;10.57;9.57;;;;;;;-4.44;81.07;100921.80;466495;111;922937;-70
2022/01/03 01:44:46;;;;;;;10.73;9.47;;;;;;;-4.45;81.04;100915.63;459038;114;922876;-72
2022/01/03 01:45:51;;;;;;;9.59;8.69;;;;;;;-4.44;81.11;100911.16;452414;114;923339;-70
2022/01/03 01:46:56;;;;;;;10.08;9.12;;;;;;;-4.43;81.05;100907.55;457762;112;922686;-71
2022/01/03 01:48:02;;;;;;;9.79;8.81;;;;;;;-4.43;80.96;100905.73;468347;112;923141;-70
2022/01/03 01:49:06;;;;;;;10.75;9.54;;;;;;;-4.42;80.95;100909.25;467946;111;922745;-70
2022/01/03 01:50:10;;;;;;;9.74;8.75;;;;;;;-4.43;80.91;100905.73;468021;112;922905;-70
2022/01/03 01:51:16;;;;;;;10.86;9.76;;;;;;;-4.44;80.94;100906.69;467822;111;922920;-70
2022/01/03 01:52:22;;;;;;;10.62;9.59;;;;;;;-4.41;81.01;100910.95;467565;111;922591;-70
2022/01/03 01:53:28;;;;;;;10.24;9.23;;;;;;;-4.41;81.02;100914.44;468460;112;922539;-70
2022/01/03 01:54:36;;;;;;;11.17;10.13;;;;;;;-4.40;80.96;100904.65;468107;112;923076;-69
2022/01/03 01:55:45;;;;;;;11.49;10.38;;;;;;;-4.38;81.04;100906.25;467870;111;922573;-69
2022/01/03 01:57:09;;;;;;;16.73;11.51;;;;;;;-4.34;81.14;100893.56;462488;114;923280;-70
2022/01/03 01:58:39;;;;;;;12.60;10.58;;;;;;;-4.31;81.21;100896.87;464841;112;922666;-70
2022/01/03 02:00:01;;;;;;;13.61;10.62;;;;;;;-4.25;81.20;100899.08;467415;111;922574;-71
2022/01/03 02:01:07;;;;;;;12.81;10.47;;;;;;;-4.22;81.30;100890.86;465658;111;923554;-70
2022/01/03 02:02:21;;;;;;;13.77;10.99;;;;;;;-4.15;81.57;100891.26;467501;112;922666;-70
2022/01/03 02:03:49;;;;;;;12.18;10.85;;;;;;;-4.09;81.65;100890.81;469021;111;922659;-70
2022/01/03 02:04:59;;;;;;;13.77;10.24;;;;;;;-4.05;81.59;100889.61;467812;112;922952;-71
2022/01/03 02:06:25;;;;;;;11.79;10.63;;;;;;;-4.01;81.54;100891.07;467683;112;923246;-70
2022/01/03 02:08:08;;;;;;;12.69;10.18;;;;;;;-3.98;81.57;100882.88;467267;111;922572;-70
2022/01/03 02:09:12;;;;;;;10.43;8.61;;;;;;;-3.98;81.50;100877.55;468221;111;922587;-69
2022/01/03 02:10:16;;;;;;;11.08;8.68;;;;;;;-4.03;81.33;100876.19;467294;111;922696;-71
2022/01/03 02:11:49;;;;;;;9.89;8.88;;;;;;;-4.03;81.45;100870.86;468287;111;923127;-70
2022/01/03 02:12:53;;;;;;;10.56;9.54;;;;;;;-4.04;81.44;100880.66;468676;111;922937;-69
2022/01/03 02:13:59;;;;;;;12.02;9.63;;;;;;;-4.07;81.23;100874.70;466849;111;922567;-68
2022/01/03 02:15:05;;;;;;;10.98;9.78;;;;;;;-4.08;81.24;100867.70;467846;111;922692;-69
2022/01/03 02:16:08;;;;;;;10.93;9.82;;;;;;;-4.08;81.37;100868.52;467911;112;922762;-68
2022/01/03 02:17:14;;;;;;;11.01;9.72;;;;;;;-4.04;81.50;100866.49;468206;111;922611;-70
2022/01/03 02:18:17;;;;;;;14.34;10.77;;;;;;;-4.00;81.58;100855.49;467928;111;922648;-71
2022/01/03 02:19:21;;;;;;;12.21;10.94;;;;;;;-3.93;81.69;100858.55;468217;112;922606;-70
2022/01/03 02:20:31;;;;;;;12.75;10.79;;;;;;;-3.87;81.85;100856.28;470280;112;923092;-70
2022/01/03 02:21:32;;;;;;;13.53;10.29;;;;;;;-3.82;81.75;100862.10;469494;111;922963;-71
2022/01/03 02:22:38;;;;;;;11.98;10.76;;;;;;;-3.80;81.63;100857.48;467643;112;922577;-69
2022/01/03 02:23:43;;;;;;;12.43;11.17;;;;;;;-3.77;81.52;100850.23;468642;112;922874;-69
2022/01/03 02:24:47;;;;;;;13.23;11.88;;;;;;;-3.77;81.45;100853.76;468204;111;922755;-70
2022/01/03 02:25:51;;;;;;;14.29;12.06;;;;;;;-3.79;81.27;100845.88;468218;111;922719;-69
2022/01/03 02:26:55;;;;;;;15.09;12.04;;;;;;;-3.80;81.19;100844.17;469710;111;923147;-70
2022/01/03 02:27:59;;;;;;;14.44;11.89;;;;;;;-3.81;81.21;100839.83;468936;112;922581;-70
2022/01/03 02:29:05;;;;;;;14.45;11.55;;;;;;;-3.81;81.22;100842.50;464006;111;922705;-70
2022/01/03 02:30:12;;;;;;;13.53;11.96;;;;;;;-3.80;81.34;100837.98;459525;114;922539;-69
2022/01/03 02:31:17;;;;;;;14.18;12.33;;;;;;;-3.76;81.48;100843.95;460325;114;930395;-71
2022/01/03 02:32:21;;;;;;;13.78;12.13;;;;;;;-3.74;81.43;100837.52;459569;114;923078;-69
2022/01/03 02:33:25;;;;;;;14.39;12.75;;;;;;;-3.73;81.42;100833.05;459344;113;922766;-69
2022/01/03 02:34:29;;;;;;;15.02;12.71;;;;;;;-3.70;81.46;100840.83;461786;113;922591;-70
2022/01/03 02:35:38;;;;;;;14.76;12.46;;;;;;;-3.69;81.44;100834.53;459888;114;922667;-69
2022/01/03 02:36:44;;;;;;;15.96;13.06;;;;;;;-3.69;81.22;100823.87;460955;113;922682;-68
2022/01/03 02:37:48;;;;;;;15.83;14.14;;;;;;;-3.69;81.21;100826.55;458908;113;922599;-71
2022/01/03 02:38:53;;;;;;;14.72;13.23;;;;;;;-3.69;81.17;100822.03;460409;114;922902;-71
2022/01/03 02:39:57;;;;;;;17.58;13.35;;;;;;;-3.66;81.32;100819.15;460939;114;922593;-69
2022/01/03 02:41:03;;;;;;;14.51;12.99;;;;;;;-3.62;81.42;100819.75;459902;113;923069;-69
2022/01/03 02:42:06;;;;;;;16.45;12.94;;;;;;;-3.58;81.38;100815.88;461639;113;922636;-70
2022/01/03 02:43:10;;;;;;;12.80;11.52;;;;;;;-3.53;81.60;100821.72;462329;114;930345;-71
2022/01/03 02:44:17;;;;;;;13.68;12.28;;;;;;;-3.48;81.67;100819.55;459155;114;922874;-69
2022/01/03 02:45:24;;;;;;;12.06;10.90;;;;;;;-3.45;81.67;100806.81;460185;113;922725;-70
2022/01/03 02:46:27;;;;;;;12.73;11.38;;;;;;;-3.42;81.56;100816.41;460300;114;922667;-69
2022/01/03 02:47:31;;;;;;;14.40;11.70;;;;;;;-3.40;81.52;100801.12;460934;114;923116;-70
2022/01/03 02:48:34;;;;;;;13.61;11.11;;;;;;;-3.40;81.43;100803.79;460345;113;930433;-70
2022/01/03 02:49:38;;;;;;;15.53;11.59;;;;;;;-3.42;81.38;100800.41;461178;113;930396;-69
2022/01/03 02:50:41;;;;;;;12.68;11.28;;;;;;;-3.43;81.27;100804.05;460937;114;928191;-70
2022/01/03 02:51:46;;;;;;;13.96;12.13;;;;;;;-3.45;81.22;100795.30;459370;113;925351;-69
2022/01/03 02:52:52;;;;;;;12.86;11.50;;;;;;;-3.47;81.20;100798.08;449924;116;922631;-69
2022/01/03 02:53:56;;;;;;;13.56;11.53;;;;;;;-3.49;81.07;100793.86;449663;114;922685;-70
2022/01/03 02:54:59;;;;;;;12.40;11.16;;;;;;;-3.51;81.04;100795.78;453185;115;923357;-67
2022/01/03 02:56:02;;;;;;;13.08;11.69;;;;;;;-3.52;81.03;100794.93;453340;114;923102;-70
2022/01/03 02:57:06;;;;;;;11.76;10.53;;;;;;;-3.52;81.02;100789.59;459656;113;930442;-70
2022/01/03 02:58:11;;;;;;;12.63;11.32;;;;;;;-3.51;81.04;100788.64;459944;114;930211;-69
2022/01/03 02:59:19;;;;;;;12.75;11.36;;;;;;;-3.50;81.14;100789.48;461831;113;922895;-69
2022/01/03 03:00:25;;;;;;;13.78;11.72;;;;;;;-3.50;81.15;100782.34;460910;113;922658;-70
2022/01/03 03:01:29;;;;;;;14.09;12.61;;;;;;;-3.49;81.04;100794.70;452300;116;922746;-71
2022/01/03 03:02:34;;;;;;;14.25;12.50;;;;;;;-3.50;80.86;100794.81;455486;114;922629;-70
2022/01/03 03:03:39;;;;;;;13.77;12.31;;;;;;;-3.51;80.90;100787.78;459612;113;922681;-69
2022/01/03 03:04:55;;;;;;;17.12;13.88;;;;;;;-3.53;80.90;100793.23;460178;113;922823;-68
2022/01/03 03:05:59;;;;;;;16.73;13.30;;;;;;;-3.52;80.87;100788.75;453474;115;923108;-71
2022/01/03 03:07:06;;;;;;;15.32;13.57;;;;;;;-3.54;80.85;100774.71;455346;114;922818;-70
2022/01/03 03:08:10;;;;;;;17.97;12.97;;;;;;;-3.54;80.91;100772.05;456220;113;922676;-70
2022/01/03 03:09:15;;;;;;;17.08;13.62;;;;;;;-3.54;80.84;100777.38;461293;114;922988;-69
2022/01/03 03:10:20;;;;;;;15.44;12.83;;;;;;;-3.57;80.68;100775.79;459806;114;922546;-71
2022/01/03 03:11:25;;;;;;;15.62;13.94;;;;;;;-3.60;80.68;100775.19;459990;113;922555;-69
2022/01/03 03:12:29;;;;;;;16.98;13.23;;;;;;;-3.62;80.69;100775.30;459809;113;922527;-69
2022/01/03 03:13:32;;;;;;;19.34;15.16;;;;;;;-3.62;80.79;100775.30;459626;114;922966;-70
2022/01/03 03:14:38;;;;;;;16.31;14.62;;;;;;;-3.61;80.77;100765.49;459823;113;922668;-70
2022/01/03 03:15:42;;;;;;;15.07;13.26;;;;;;;-3.62;80.68;100766.45;459810;114;922689;-69
2022/01/03 03:16:46;;;;;;;17.16;14.07;;;;;;;-3.62;80.58;100766.45;460177;113;922561;-70
2022/01/03 03:17:49;;;;;;;18.93;14.79;;;;;;;-3.61;80.64;100765.49;461669;113;930285;-69
2022/01/03 03:18:53;;;;;;;16.11;13.46;;;;;;;-3.62;80.65;100766.45;460113;113;922654;-69
2022/01/03 03:20:09;;;;;;;15.88;13.20;;;;;;;-3.62;80.67;100758.46;460564;113;924886;-69
2022/01/03 03:21:13;;;;;;;19.55;14.53;;;;;;;-3.62;80.67;100758.46;460460;114;922666;-71
2022/01/03 03:22:17;;;;;;;18.24;13.66;;;;;;;-3.61;80.68;100753.02;460397;113;923222;-70
2022/01/03 03:23:23;;;;;;;15.73;13.25;;;;;;;-3.60;80.60;100756.54;459872;113;923051;-69
2022/01/03 03:24:30;;;;;;;19.43;13.61;;;;;;;-3.60;80.63;100748.55;459782;114;922696;-70
2022/01/03 03:25:35;;;;;;;16.11;14.01;;;;;;;-3.59;80.64;100758.23;459032;113;922816;-72
2022/01/03 03:26:40;;;;;;;16.91;15.07;;;;;;;-3.57;80.73;100748.28;460418;114;922925;-69
2022/01/03 03:27:47;;;;;;;19.42;13.95;;;;;;;-3.54;80.87;100753.39;460580;114;922647;-69
2022/01/03 03:28:52;;;;;;;20.81;15.32;;;;;;;-3.51;80.87;100753.98;459894;114;922971;-69
2022/01/03 03:29:56;;;;;;;17.29;13.91;;;;;;;-3.50;80.82;100753.03;462735;112;922592;-70
2022/01/03 03:31:00;;;;;;;17.02;12.73;;;;;;;-3.49;80.68;100756.55;462574;113;922669;-68
2022/01/03 03:32:11;;;;;;;15.94;12.56;;;;;;;-3.51;80.56;100759.32;463276;113;922880;-69
2022/01/03 03:33:17;;;;;;;14.79;11.84;;;;;;;-3.55;80.46;100741.03;463653;113;922471;-70
2022/01/03 03:34:23;;;;;;;14.88;12.68;;;;;;;-3.56;80.56;100739.33;462466;113;930451;-70
2022/01/03 03:35:26;;;;;;;13.49;12.14;;;;;;;-3.55;80.56;100736.55;464726;113;922505;-71
2022/01/03 03:36:29;;;;;;;13.62;12.24;;;;;;;-3.53;80.58;100736.44;464577;113;931006;-71
2022/01/03 03:37:33;;;;;;;16.05;11.90;;;;;;;-3.52;80.60;100735.45;464546;112;924274;-71
2022/01/03 03:38:36;;;;;;;14.74;12.07;;;;;;;-3.54;80.54;100735.59;463895;113;926432;-70
2022/01/03 03:39:43;;;;;;;12.57;11.24;;;;;;;-3.53;80.43;100733.78;461405;113;930367;-70
2022/01/03 03:40:47;;;;;;;15.63;11.97;;;;;;;-3.55;80.45;100723.23;463569;113;922743;-69
2022/01/03 03:41:51;;;;;;;12.53;10.88;;;;;;;-3.55;80.49;100722.38;464114;112;922573;-71
2022/01/03 03:42:54;;;;;;;14.28;11.84;;;;;;;-3.55;80.41;100719.71;463849;113;922669;-70
2022/01/03 03:43:58;;;;;;;15.55;11.94;;;;;;;-3.56;80.36;100718.86;462852;113;930382;-70
2022/01/03 03:45:02;;;;;;;12.69;11.00;;;;;;;-3.56;80.42;100723.34;464159;112;923242;-70
2022/01/03 03:46:07;;;;;;;12.89;11.60;;;;;;;-3.55;80.41;100730.38;463219;113;922606;-70
2022/01/03 03:47:10;;;;;;;13.28;10.72;;;;;;;-3.57;80.29;100721.64;465234;113;923123;-70
2022/01/03 03:48:15;;;;;;;15.20;11.45;;;;;;;-3.58;80.30;100719.94;463385;113;930289;-69
2022/01/03 03:49:18;;;;;;;12.72;10.84;;;;;;;-3.58;80.36;100719.94;456051;114;922795;-72
2022/01/03 03:50:23;;;;;;;13.25;11.74;;;;;;;-3.59;80.37;100715.60;456341;113;922967;-69
2022/01/03 03:51:29;;;;;;;12.81;11.29;;;;;;;-3.60;80.27;100713.91;462901;113;922653;-70
2022/01/03 03:52:33;;;;;;;13.41;12.11;;;;;;;-3.61;80.12;100722.86;463209;112;922671;-69
2022/01/03 03:53:37;;;;;;;15.41;13.62;;;;;;;-3.65;80.08;100713.42;464383;113;922620;-70
2022/01/03 03:54:41;;;;;;;14.29;12.49;;;;;;;-3.66;80.09;100714.38;463669;113;922584;-71
2022/01/03 03:55:44;;;;;;;15.05;13.55;;;;;;;-3.68;80.17;100713.64;464220;111;930503;-69
2022/01/03 03:56:48;;;;;;;15.33;12.54;;;;;;;-3.68;80.24;100724.30;464488;112;922697;-70
2022/01/03 03:57:51;;;;;;;14.76;13.01;;;;;;;-3.68;80.38;100709.16;463434;113;928020;-70
2022/01/03 03:58:54;;;;;;;22.48;12.97;;;;;;;-3.66;80.41;100712.56;455939;115;922993;-69
2022/01/03 03:59:58;;;;;;;13.10;11.28;;;;;;;-3.66;80.36;100709.91;454296;113;922752;-69
2022/01/03 04:01:01;;;;;;;13.22;11.24;;;;;;;-3.65;80.32;100714.27;463909;111;930371;-69
2022/01/03 04:02:07;;;;;;;14.35;11.33;;;;;;;-3.67;80.22;100702.88;463448;113;922940;-70
2022/01/03 04:03:11;;;;;;;12.15;10.56;;;;;;;-3.69;80.18;100704.80;465322;113;922566;-70
2022/01/03 04:04:15;;;;;;;17.06;11.51;;;;;;;-3.69;80.23;100702.13;463750;112;922895;-70
2022/01/03 04:05:19;;;;;;;13.90;11.50;;;;;;;-3.67;80.31;100691.36;463146;113;922608;-70
2022/01/03 04:06:23;;;;;;;13.92;11.71;;;;;;;-3.68;80.32;100685.19;463078;113;922698;-71
2022/01/03 04:07:28;;;;;;;14.40;9.92;;;;;;;-3.67;80.23;100678.05;463780;112;923281;-71
2022/01/03 04:08:32;;;;;;;13.06;11.56;;;;;;;-3.70;80.14;100667.64;463665;113;922993;-70
2022/01/03 04:09:35;;;;;;;13.12;11.25;;;;;;;-3.72;80.12;100669.57;463675;113;923249;-69
2022/01/03 04:10:39;;;;;;;14.13;11.04;;;;;;;-3.74;80.11;100672.34;462742;113;922685;-69
2022/01/03 04:11:42;;;;;;;16.73;12.03;;;;;;;-3.76;80.05;100668.98;463864;113;930352;-69
2022/01/03 04:12:47;;;;;;;12.89;11.10;;;;;;;-3.75;80.18;100667.16;464401;113;922530;-69
2022/01/03 04:13:51;;;;;;;15.53;11.58;;;;;;;-3.74;80.33;100655.52;463297;113;923145;-69
2022/01/03 04:14:54;;;;;;;12.24;10.95;;;;;;;-3.72;80.48;100658.91;463356;113;922551;-73
2022/01/03 04:15:58;;;;;;;13.11;11.64;;;;;;;-3.68;80.55;100653.22;463760;112;922732;-70
2022/01/03 04:17:02;;;;;;;12.19;10.88;;;;;;;-3.64;80.51;100652.02;464462;113;930868;-70
2022/01/03 04:18:05;;;;;;;12.22;10.78;;;;;;;-3.62;80.38;100654.54;465113;113;922527;-69
2022/01/03 04:19:09;;;;;;;12.68;11.29;;;;;;;-3.59;80.52;100646.32;464433;113;930399;-69
2022/01/03 04:20:15;;;;;;;14.69;11.62;;;;;;;-3.59;80.52;100646.32;462821;113;931052;-70
2022/01/03 04:21:20;;;;;;;14.04;11.49;;;;;;;-3.59;80.41;100633.84;464129;113;922567;-70
2022/01/03 04:22:23;;;;;;;14.15;11.95;;;;;;;-3.57;80.47;100631.88;464278;113;922661;-70
2022/01/03 04:23:27;;;;;;;12.71;11.20;;;;;;;-3.55;80.54;100631.77;462682;113;922643;-70
2022/01/03 04:24:31;;;;;;;13.12;10.92;;;;;;;-3.55;80.45;100623.78;462480;113;923023;-70
2022/01/03 04:25:35;;;;;;;12.08;10.71;;;;;;;-3.56;80.32;100622.08;464517;113;922631;-70
2022/01/03 04:26:39;;;;;;;12.35;10.92;;;;;;;-3.56;80.41;100624.73;463448;111;922498;-70
2022/01/03 04:27:43;;;;;;;12.21;10.97;;;;;;;-3.57;80.54;100612.38;463915;112;923081;-70
2022/01/03 04:28:47;;;;;;;11.52;10.39;;;;;;;-3.55;80.60;100613.12;453922;115;930307;-70
2022/01/03 04:29:51;;;;;;;13.54;11.81;;;;;;;-3.54;80.50;100612.16;455458;114;922890;-70
2022/01/03 04:30:54;;;;;;;13.06;10.19;;;;;;;-3.53;80.45;100608.52;464003;111;923053;-73
2022/01/03 04:31:58;;;;;;;11.99;10.67;;;;;;;-3.54;80.36;100599.67;462597;113;922571;-70
2022/01/03 04:33:01;;;;;;;13.29;11.04;;;;;;;-3.54;80.41;100598.83;463629;113;922599;-68
2022/01/03 04:34:05;;;;;;;12.78;10.70;;;;;;;-3.52;80.48;100599.53;462166;112;923051;-70
2022/01/03 04:35:08;;;;;;;13.23;10.71;;;;;;;-3.51;80.47;100599.41;461922;113;922848;-69
2022/01/03 04:36:12;;;;;;;12.89;11.44;;;;;;;-3.49;80.56;100596.63;457396;114;922617;-70
2022/01/03 04:37:16;;;;;;;14.36;10.95;;;;;;;-3.48;80.47;100588.52;457293;113;930424;-70
2022/01/03 04:38:19;;;;;;;11.41;9.37;;;;;;;-3.47;80.45;100584.01;462260;112;922615;-70
2022/01/03 04:39:23;;;;;;;10.72;9.48;;;;;;;-3.50;80.19;100578.94;463006;113;930287;-71
2022/01/03 04:40:27;;;;;;;11.39;8.42;;;;;;;-3.50;80.19;100578.94;464665;113;930543;-70
2022/01/03 04:41:30;;;;;;;11.19;9.64;;;;;;;-3.49;80.32;100575.31;463099;112;924703;-70
2022/01/03 04:42:34;;;;;;;12.51;10.46;;;;;;;-3.47;80.48;100566.20;463502;113;930554;-70
2022/01/03 04:43:39;;;;;;;10.50;8.54;;;;;;;-3.43;80.60;100564.15;462559;113;930536;-70
2022/01/03 04:44:43;;;;;;;14.09;9.66;;;;;;;-3.40;80.58;100555.89;446178;116;922646;-71
2022/01/03 04:45:47;;;;;;;10.89;8.84;;;;;;;-3.37;80.62;100558.32;449488;116;922880;-71
2022/01/03 04:46:52;;;;;;;11.03;9.76;;;;;;;-3.36;80.63;100543.99;447485;116;922665;-70
2022/01/03 04:47:56;;;;;;;12.27;9.82;;;;;;;-3.36;80.54;100544.84;447077;116;922866;-71
2022/01/03 04:49:01;;;;;;;12.86;9.84;;;;;;;-3.36;80.49;100539.51;443522;118;923096;-69
2022/01/03 04:50:05;;;;;;;11.77;10.06;;;;;;;-3.34;80.55;100541.20;456699;113;923144;-72
2022/01/03 04:51:09;;;;;;;12.51;9.96;;;;;;;-3.33;80.59;100545.57;462599;113;923466;-71
2022/01/03 04:52:12;;;;;;;11.11;9.84;;;;;;;-3.32;80.55;100531.28;461809;113;930193;-70
2022/01/03 04:53:16;;;;;;;14.63;10.06;;;;;;;-3.32;80.53;100534.79;462627;113;922516;-70
2022/01/03 04:54:19;;;;;;;12.44;10.44;;;;;;;-3.30;80.65;100531.97;463206;113;930357;-70
2022/01/03 04:55:23;;;;;;;13.34;10.40;;;;;;;-3.27;80.56;100535.25;465738;111;930333;-69
2022/01/03 04:56:27;;;;;;;12.04;10.84;;;;;;;-3.25;80.49;100529.80;453723;114;923019;-70
2022/01/03 04:57:31;;;;;;;11.61;9.31;;;;;;;-3.24;80.48;100526.98;455126;111;923102;-71
2022/01/03 04:58:34;;;;;;;11.88;10.42;;;;;;;-3.23;80.37;100525.16;463268;113;922695;-70
2022/01/03 04:59:38;;;;;;;15.23;10.78;;;;;;;-3.23;80.31;100520.68;462443;111;930398;-69